sensor_id;sensor_type;location;lat;lon;timestamp;pressure;altitude;pressure_sealevel;temperature;humidity
77366;BME280;66430;50.182;11.704;2023-05-10T00:02:18;94059.71;;;14.63;30.92
77366;BME280;66430;50.182;11.704;2023-05-10T00:04:44;94055.43;;;14.45;30.74
77366;BME280;66430;50.182;11.704;2023-05-10T00:07:08;94053.20;;;14.65;30.86
77366;BME280;66430;50.182;11.704;2023-05-10T00:09:33;94052.11;;;14.70;30.86
77366;BME280;66430;50.182;11.704;2023-05-10T00:11:59;94049.45;;;14.99;30.89
77366;BME280;66430;50.182;11.704;2023-05-10T00:14:24;94046.92;;;14.73;31.03
77366;BME280;66430;50.182;11.704;2023-05-10T00:16:50;94045.13;;;14.68;30.96
77366;BME280;66430;50.182;11.704;2023-05-10T00:19:15;94039.52;;;14.95;31.04
77366;BME280;66430;50.182;11.704;2023-05-10T00:21:41;94037.50;;;14.66;30.99
77366;BME280;66430;50.182;11.704;2023-05-10T00:24:06;94036.14;;;14.65;31.14
77366;BME280;66430;50.182;11.704;2023-05-10T00:26:32;94034.38;;;14.65;31.18
77366;BME280;66430;50.182;11.704;2023-05-10T00:28:57;94030.59;;;14.88;31.21
77366;BME280;66430;50.182;11.704;2023-05-10T00:31:23;94029.47;;;14.67;31.23
77366;BME280;66430;50.182;11.704;2023-05-10T00:33:48;94027.95;;;14.68;31.26
77366;BME280;66430;50.182;11.704;2023-05-10T00:36:13;94026.10;;;14.67;31.43
77366;BME280;66430;50.182;11.704;2023-05-10T00:38:39;94023.52;;;14.86;31.50
77366;BME280;66430;50.182;11.704;2023-05-10T00:41:04;94018.82;;;14.90;31.59
77366;BME280;66430;50.182;11.704;2023-05-10T00:43:30;94017.36;;;14.86;31.72
77366;BME280;66430;50.182;11.704;2023-05-10T00:45:55;94013.23;;;14.79;31.81
77366;BME280;66430;50.182;11.704;2023-05-10T00:48:21;94012.88;;;14.52;31.87
77366;BME280;66430;50.182;11.704;2023-05-10T00:50:46;94010.25;;;14.71;31.80
77366;BME280;66430;50.182;11.704;2023-05-10T00:53:12;94008.89;;;14.70;31.91
77366;BME280;66430;50.182;11.704;2023-05-10T00:55:37;94007.63;;;14.74;31.83
77366;BME280;66430;50.182;11.704;2023-05-10T00:58:02;94004.46;;;14.42;31.86
77366;BME280;66430;50.182;11.704;2023-05-10T01:00:27;94002.23;;;14.61;32.05
77366;BME280;66430;50.182;11.704;2023-05-10T01:02:53;94003.35;;;14.60;32.25
77366;BME280;66430;50.182;11.704;2023-05-10T01:05:18;94001.54;;;14.32;32.32
77366;BME280;66430;50.182;11.704;2023-05-10T01:07:43;93997.55;;;14.28;32.24
77366;BME280;66430;50.182;11.704;2023-05-10T01:10:09;93996.53;;;14.30;32.21
77366;BME280;66430;50.182;11.704;2023-05-10T01:12:35;93993.96;;;14.56;32.17
77366;BME280;66430;50.182;11.704;2023-05-10T01:15:00;93992.05;;;14.51;32.06
77366;BME280;66430;50.182;11.704;2023-05-10T01:17:24;93990.16;;;14.26;31.96
77366;BME280;66430;50.182;11.704;2023-05-10T01:19:50;93988.09;;;14.48;32.07
77366;BME280;66430;50.182;11.704;2023-05-10T01:22:30;93988.35;;;14.49;32.00
77366;BME280;66430;50.182;11.704;2023-05-10T01:27:19;93991.81;;;14.23;32.09
77366;BME280;66430;50.182;11.704;2023-05-10T01:29:48;93989.19;;;14.21;32.14
77366;BME280;66430;50.182;11.704;2023-05-10T01:32:10;93986.61;;;14.29;31.92
77366;BME280;66430;50.182;11.704;2023-05-10T01:34:27;93986.52;;;14.34;32.10
77366;BME280;66430;50.182;11.704;2023-05-10T01:36:53;93988.70;;;14.33;32.15
77366;BME280;66430;50.182;11.704;2023-05-10T01:39:19;93988.90;;;14.55;32.15
77366;BME280;66430;50.182;11.704;2023-05-10T01:41:43;93990.47;;;14.56;32.12
77366;BME280;66430;50.182;11.704;2023-05-10T01:44:08;93988.26;;;14.38;32.18
77366;BME280;66430;50.182;11.704;2023-05-10T01:46:33;93986.29;;;14.61;32.30
77366;BME280;66430;50.182;11.704;2023-05-10T01:48:56;93985.97;;;14.37;32.21
77366;BME280;66430;50.182;11.704;2023-05-10T01:51:23;93989.20;;;14.52;32.50
77366;BME280;66430;50.182;11.704;2023-05-10T01:53:46;93988.90;;;14.66;32.09
77366;BME280;66430;50.182;11.704;2023-05-10T01:56:11;93989.41;;;14.53;32.44
77366;BME280;66430;50.182;11.704;2023-05-10T01:58:36;93992.02;;;14.33;32.22
77366;BME280;66430;50.182;11.704;2023-05-10T02:01:03;93990.34;;;14.38;32.39
77366;BME280;66430;50.182;11.704;2023-05-10T02:03:27;93987.18;;;14.34;32.43
77366;BME280;66430;50.182;11.704;2023-05-10T02:05:54;93986.98;;;14.44;32.37
77366;BME280;66430;50.182;11.704;2023-05-10T02:08:18;93987.11;;;14.50;32.39
77366;BME280;66430;50.182;11.704;2023-05-10T02:10:43;93987.32;;;14.73;32.44
77366;BME280;66430;50.182;11.704;2023-05-10T02:13:08;93986.32;;;14.78;32.45
77366;BME280;66430;50.182;11.704;2023-05-10T02:15:33;93985.13;;;14.79;32.47
77366;BME280;66430;50.182;11.704;2023-05-10T02:17:59;93984.42;;;14.29;32.54
77366;BME280;66430;50.182;11.704;2023-05-10T02:20:24;93985.81;;;14.33;32.52
77366;BME280;66430;50.182;11.704;2023-05-10T02:22:49;93985.22;;;14.54;32.52
77366;BME280;66430;50.182;11.704;2023-05-10T02:25:14;93987.58;;;14.75;32.43
77366;BME280;66430;50.182;11.704;2023-05-10T02:27:41;93988.09;;;14.74;32.56
77366;BME280;66430;50.182;11.704;2023-05-10T02:30:06;93988.05;;;14.50;32.56
77366;BME280;66430;50.182;11.704;2023-05-10T02:32:30;93986.83;;;14.53;32.35
77366;BME280;66430;50.182;11.704;2023-05-10T02:34:56;93987.17;;;14.42;32.76
77366;BME280;66430;50.182;11.704;2023-05-10T02:37:22;93986.65;;;14.40;32.64
77366;BME280;66430;50.182;11.704;2023-05-10T02:39:47;93985.22;;;14.40;32.57
77366;BME280;66430;50.182;11.704;2023-05-10T02:42:16;93983.67;;;14.34;32.69
77366;BME280;66430;50.182;11.704;2023-05-10T02:44:38;93979.69;;;14.69;32.44
77366;BME280;66430;50.182;11.704;2023-05-10T02:47:03;93977.90;;;14.62;32.57
77366;BME280;66430;50.182;11.704;2023-05-10T02:49:29;93979.23;;;14.36;32.96
77366;BME280;66430;50.182;11.704;2023-05-10T02:52:00;93974.62;;;14.60;32.90
77366;BME280;66430;50.182;11.704;2023-05-10T02:54:22;93976.31;;;14.15;32.74
77366;BME280;66430;50.182;11.704;2023-05-10T02:56:50;93974.33;;;14.31;33.04
77366;BME280;66430;50.182;11.704;2023-05-10T02:59:10;93972.43;;;14.54;33.32
77366;BME280;66430;50.182;11.704;2023-05-10T03:01:36;93971.85;;;14.32;33.56
77366;BME280;66430;50.182;11.704;2023-05-10T03:04:01;93970.26;;;14.34;33.64
77366;BME280;66430;50.182;11.704;2023-05-10T03:06:26;93970.80;;;14.59;33.73
77366;BME280;66430;50.182;11.704;2023-05-10T03:08:52;93970.15;;;14.62;33.95
77366;BME280;66430;50.182;11.704;2023-05-10T03:11:28;93970.72;;;14.65;33.91
77366;BME280;66430;50.182;11.704;2023-05-10T03:13:48;93969.74;;;14.42;34.14
77366;BME280;66430;50.182;11.704;2023-05-10T03:16:12;93968.50;;;14.42;34.08
77366;BME280;66430;50.182;11.704;2023-05-10T03:18:40;93970.56;;;14.70;34.04
77366;BME280;66430;50.182;11.704;2023-05-10T03:21:02;93969.12;;;14.74;34.17
77366;BME280;66430;50.182;11.704;2023-05-10T03:23:33;93967.57;;;14.76;34.13
77366;BME280;66430;50.182;11.704;2023-05-10T03:25:50;93966.69;;;14.77;34.24
77366;BME280;66430;50.182;11.704;2023-05-10T03:28:16;93967.34;;;14.77;34.05
77366;BME280;66430;50.182;11.704;2023-05-10T03:30:41;93968.99;;;14.59;33.58
77366;BME280;66430;50.182;11.704;2023-05-10T03:33:05;93972.00;;;14.56;34.02
77366;BME280;66430;50.182;11.704;2023-05-10T03:35:31;93969.44;;;14.66;33.75
77366;BME280;66430;50.182;11.704;2023-05-10T03:37:56;93975.29;;;14.62;33.75
77366;BME280;66430;50.182;11.704;2023-05-10T03:40:22;93972.73;;;14.83;33.97
77366;BME280;66430;50.182;11.704;2023-05-10T03:42:47;93966.75;;;14.74;33.70
77366;BME280;66430;50.182;11.704;2023-05-10T03:45:13;93965.98;;;14.75;33.70
77366;BME280;66430;50.182;11.704;2023-05-10T03:47:38;93962.34;;;14.83;33.40
77366;BME280;66430;50.182;11.704;2023-05-10T03:50:04;93961.14;;;14.82;33.61
77366;BME280;66430;50.182;11.704;2023-05-10T03:52:29;93962.22;;;15.08;33.56
77366;BME280;66430;50.182;11.704;2023-05-10T03:54:54;93963.65;;;14.84;33.59
77366;BME280;66430;50.182;11.704;2023-05-10T03:57:20;93965.10;;;14.58;34.09
77366;BME280;66430;50.182;11.704;2023-05-10T03:59:45;93966.76;;;14.63;34.09
77366;BME280;66430;50.182;11.704;2023-05-10T04:02:16;93968.08;;;14.96;33.80
77366;BME280;66430;50.182;11.704;2023-05-10T04:04:36;93967.05;;;14.93;34.00
77366;BME280;66430;50.182;11.704;2023-05-10T04:07:06;93965.57;;;14.66;34.09
77366;BME280;66430;50.182;11.704;2023-05-10T04:09:27;93968.15;;;14.93;34.03
77366;BME280;66430;50.182;11.704;2023-05-10T04:11:52;93966.37;;;14.63;34.21
77366;BME280;66430;50.182;11.704;2023-05-10T04:14:17;93970.04;;;14.86;34.42
77366;BME280;66430;50.182;11.704;2023-05-10T04:16:43;93969.90;;;14.59;34.78
77366;BME280;66430;50.182;11.704;2023-05-10T04:19:08;93970.11;;;14.57;35.46
77366;BME280;66430;50.182;11.704;2023-05-10T04:21:34;93968.63;;;15.06;35.36
77366;BME280;66430;50.182;11.704;2023-05-10T04:23:59;93969.88;;;14.60;35.50
77366;BME280;66430;50.182;11.704;2023-05-10T04:26:25;93973.01;;;14.61;35.55
77366;BME280;66430;50.182;11.704;2023-05-10T04:28:50;93969.97;;;14.89;35.40
77366;BME280;66430;50.182;11.704;2023-05-10T04:31:15;93969.46;;;14.67;35.33
77366;BME280;66430;50.182;11.704;2023-05-10T04:33:40;93971.36;;;14.94;35.09
77366;BME280;66430;50.182;11.704;2023-05-10T04:36:06;93970.37;;;14.82;34.70
77366;BME280;66430;50.182;11.704;2023-05-10T04:38:31;93972.24;;;15.09;34.72
77366;BME280;66430;50.182;11.704;2023-05-10T04:41:05;93973.79;;;14.98;34.69
77366;BME280;66430;50.182;11.704;2023-05-10T04:43:22;93977.12;;;15.20;34.84
77366;BME280;66430;50.182;11.704;2023-05-10T04:45:47;93979.77;;;15.04;34.88
77366;BME280;66430;50.182;11.704;2023-05-10T04:48:12;93977.05;;;15.24;35.09
77366;BME280;66430;50.182;11.704;2023-05-10T04:50:38;93977.47;;;14.99;35.33
77366;BME280;66430;50.182;11.704;2023-05-10T04:53:03;93983.57;;;14.87;35.96
77366;BME280;66430;50.182;11.704;2023-05-10T04:55:30;93988.35;;;14.63;36.14
77366;BME280;66430;50.182;11.704;2023-05-10T04:57:54;94000.50;;;14.86;36.81
77366;BME280;66430;50.182;11.704;2023-05-10T05:00:19;94007.45;;;15.08;37.23
77366;BME280;66430;50.182;11.704;2023-05-10T05:02:44;94011.53;;;14.89;37.52
77366;BME280;66430;50.182;11.704;2023-05-10T05:05:10;94011.20;;;14.70;37.11
77366;BME280;66430;50.182;11.704;2023-05-10T05:07:35;94016.84;;;14.68;37.37
77366;BME280;66430;50.182;11.704;2023-05-10T05:10:01;94023.52;;;14.95;36.63
77366;BME280;66430;50.182;11.704;2023-05-10T05:12:26;94027.27;;;14.96;36.78
77366;BME280;66430;50.182;11.704;2023-05-10T05:14:51;94030.40;;;14.68;37.30
77366;BME280;66430;50.182;11.704;2023-05-10T05:17:16;94032.39;;;14.69;37.26
77366;BME280;66430;50.182;11.704;2023-05-10T05:19:42;94033.02;;;14.90;37.53
77366;BME280;66430;50.182;11.704;2023-05-10T05:22:08;94031.70;;;15.03;37.14
77366;BME280;66430;50.182;11.704;2023-05-10T05:24:35;94031.97;;;14.95;37.55
77366;BME280;66430;50.182;11.704;2023-05-10T05:26:58;94031.39;;;14.70;37.82
77366;BME280;66430;50.182;11.704;2023-05-10T05:29:24;94033.87;;;14.72;37.80
77366;BME280;66430;50.182;11.704;2023-05-10T05:31:49;94036.42;;;14.68;38.12
77366;BME280;66430;50.182;11.704;2023-05-10T05:34:15;94035.00;;;14.87;38.41
77366;BME280;66430;50.182;11.704;2023-05-10T05:36:40;94035.36;;;15.16;37.71
77366;BME280;66430;50.182;11.704;2023-05-10T05:39:05;94040.66;;;15.22;37.69
77366;BME280;66430;50.182;11.704;2023-05-10T05:41:31;94047.72;;;14.88;38.32
77366;BME280;66430;50.182;11.704;2023-05-10T05:43:56;94047.42;;;14.89;38.08
77366;BME280;66430;50.182;11.704;2023-05-10T05:46:22;94047.47;;;14.96;38.05
77366;BME280;66430;50.182;11.704;2023-05-10T05:48:48;94051.67;;;15.00;37.98
77366;BME280;66430;50.182;11.704;2023-05-10T05:51:13;94052.44;;;14.98;38.14
77366;BME280;66430;50.182;11.704;2023-05-10T05:53:38;94055.62;;;14.75;38.38
77366;BME280;66430;50.182;11.704;2023-05-10T05:56:04;94057.59;;;14.77;38.35
77366;BME280;66430;50.182;11.704;2023-05-10T05:58:30;94060.38;;;15.04;38.34
77366;BME280;66430;50.182;11.704;2023-05-10T06:00:55;94062.97;;;14.89;38.20
77366;BME280;66430;50.182;11.704;2023-05-10T06:03:20;94064.88;;;14.79;38.88
77366;BME280;66430;50.182;11.704;2023-05-10T06:05:45;94070.13;;;14.87;38.69
77366;BME280;66430;50.182;11.704;2023-05-10T06:08:11;94071.71;;;14.99;38.96
77366;BME280;66430;50.182;11.704;2023-05-10T06:10:36;94076.16;;;14.85;39.27
77366;BME280;66430;50.182;11.704;2023-05-10T06:13:01;94077.27;;;14.56;39.74
77366;BME280;66430;50.182;11.704;2023-05-10T06:15:27;94080.08;;;14.91;39.14
77366;BME280;66430;50.182;11.704;2023-05-10T06:17:51;94079.79;;;14.80;38.78
77366;BME280;66430;50.182;11.704;2023-05-10T06:20:17;94081.03;;;15.02;39.10
77366;BME280;66430;50.182;11.704;2023-05-10T06:22:42;94084.20;;;15.06;38.89
77366;BME280;66430;50.182;11.704;2023-05-10T06:25:09;94087.93;;;14.88;38.99
77366;BME280;66430;50.182;11.704;2023-05-10T06:27:33;94090.98;;;15.15;39.40
77366;BME280;66430;50.182;11.704;2023-05-10T06:29:59;94096.11;;;15.18;39.24
77366;BME280;66430;50.182;11.704;2023-05-10T06:32:24;94099.28;;;15.23;39.17
77366;BME280;66430;50.182;11.704;2023-05-10T06:34:49;94100.69;;;15.01;39.34
77366;BME280;66430;50.182;11.704;2023-05-10T06:37:17;94102.18;;;14.99;39.48
77366;BME280;66430;50.182;11.704;2023-05-10T06:39:40;94104.67;;;15.26;39.49
77366;BME280;66430;50.182;11.704;2023-05-10T06:42:06;94108.01;;;14.92;40.07
77366;BME280;66430;50.182;11.704;2023-05-10T06:44:31;94110.63;;;15.15;40.49
77366;BME280;66430;50.182;11.704;2023-05-10T06:46:59;94111.89;;;15.16;40.21
77366;BME280;66430;50.182;11.704;2023-05-10T06:49:22;94109.57;;;14.92;40.38
77366;BME280;66430;50.182;11.704;2023-05-10T06:51:48;94108.75;;;15.30;39.82
77366;BME280;66430;50.182;11.704;2023-05-10T06:54:13;94108.09;;;15.26;40.43
77366;BME280;66430;50.182;11.704;2023-05-10T06:56:39;94110.98;;;15.28;40.39
77366;BME280;66430;50.182;11.704;2023-05-10T06:59:04;94108.17;;;15.06;40.52
77366;BME280;66430;50.182;11.704;2023-05-10T07:01:29;94110.73;;;15.09;40.69
77366;BME280;66430;50.182;11.704;2023-05-10T07:03:55;94109.98;;;15.12;40.70
77366;BME280;66430;50.182;11.704;2023-05-10T07:06:20;94112.66;;;15.25;40.45
77366;BME280;66430;50.182;11.704;2023-05-10T07:08:45;94113.55;;;15.24;40.85
77366;BME280;66430;50.182;11.704;2023-05-10T07:11:10;94114.67;;;15.34;40.66
77366;BME280;66430;50.182;11.704;2023-05-10T07:13:36;94115.33;;;15.22;41.40
77366;BME280;66430;50.182;11.704;2023-05-10T07:16:00;94117.08;;;15.34;40.93
77366;BME280;66430;50.182;11.704;2023-05-10T07:18:26;94117.42;;;15.49;40.68
77366;BME280;66430;50.182;11.704;2023-05-10T07:20:51;94116.79;;;15.51;40.91
77366;BME280;66430;50.182;11.704;2023-05-10T07:23:18;94117.80;;;15.62;41.07
77366;BME280;66430;50.182;11.704;2023-05-10T07:25:42;94119.54;;;15.48;41.13
77366;BME280;66430;50.182;11.704;2023-05-10T07:28:07;94121.12;;;15.52;42.03
77366;BME280;66430;50.182;11.704;2023-05-10T07:30:32;94122.16;;;15.61;41.83
77366;BME280;66430;50.182;11.704;2023-05-10T07:32:58;94119.44;;;15.64;41.68
77366;BME280;66430;50.182;11.704;2023-05-10T07:35:23;94119.77;;;15.72;41.70
77366;BME280;66430;50.182;11.704;2023-05-10T07:37:49;94123.19;;;14.87;43.65
77366;BME280;66430;50.182;11.704;2023-05-10T07:40:14;94124.13;;;15.67;42.23
77366;BME280;66430;50.182;11.704;2023-05-10T07:42:40;94126.30;;;15.44;43.00
77366;BME280;66430;50.182;11.704;2023-05-10T07:45:06;94128.47;;;15.80;42.24
77366;BME280;66430;50.182;11.704;2023-05-10T07:47:31;94128.10;;;15.79;42.75
77366;BME280;66430;50.182;11.704;2023-05-10T07:49:56;94127.25;;;15.58;43.09
77366;BME280;66430;50.182;11.704;2023-05-10T07:52:21;94128.67;;;15.58;43.70
77366;BME280;66430;50.182;11.704;2023-05-10T07:54:46;94127.49;;;15.80;43.18
77366;BME280;66430;50.182;11.704;2023-05-10T07:57:12;94130.75;;;15.85;43.49
77366;BME280;66430;50.182;11.704;2023-05-10T07:59:37;94132.69;;;15.92;43.81
77366;BME280;66430;50.182;11.704;2023-05-10T08:02:03;94131.75;;;15.90;43.36
77366;BME280;66430;50.182;11.704;2023-05-10T08:04:28;94134.99;;;15.95;43.50
77366;BME280;66430;50.182;11.704;2023-05-10T08:06:53;94134.17;;;15.68;43.24
77366;BME280;66430;50.182;11.704;2023-05-10T08:09:19;94137.90;;;16.19;43.36
77366;BME280;66430;50.182;11.704;2023-05-10T08:11:44;94139.74;;;16.11;42.90
77366;BME280;66430;50.182;11.704;2023-05-10T08:14:10;94136.67;;;15.88;44.13
77366;BME280;66430;50.182;11.704;2023-05-10T08:16:40;94136.75;;;15.98;43.35
77366;BME280;66430;50.182;11.704;2023-05-10T08:19:00;94138.63;;;15.97;43.23
77366;BME280;66430;50.182;11.704;2023-05-10T08:21:25;94138.54;;;16.20;42.93
77366;BME280;66430;50.182;11.704;2023-05-10T08:23:51;94147.27;;;16.37;43.21
77366;BME280;66430;50.182;11.704;2023-05-10T08:26:16;94145.29;;;16.26;43.12
77366;BME280;66430;50.182;11.704;2023-05-10T08:28:42;94147.10;;;16.36;43.22
77366;BME280;66430;50.182;11.704;2023-05-10T08:31:07;94153.16;;;16.49;42.88
77366;BME280;66430;50.182;11.704;2023-05-10T08:33:32;94154.62;;;16.46;43.25
77366;BME280;66430;50.182;11.704;2023-05-10T08:35:58;94155.17;;;16.52;42.94
77366;BME280;66430;50.182;11.704;2023-05-10T08:38:23;94160.88;;;16.50;43.38
77366;BME280;66430;50.182;11.704;2023-05-10T08:40:50;94161.27;;;17.05;43.45
77366;BME280;66430;50.182;11.704;2023-05-10T08:43:14;94165.11;;;16.76;42.54
77366;BME280;66430;50.182;11.704;2023-05-10T08:45:41;94166.92;;;16.74;42.76
77366;BME280;66430;50.182;11.704;2023-05-10T08:48:06;94168.11;;;16.49;43.21
77366;BME280;66430;50.182;11.704;2023-05-10T08:50:31;94169.99;;;16.64;43.12
77366;BME280;66430;50.182;11.704;2023-05-10T08:52:59;94172.50;;;16.50;43.46
77366;BME280;66430;50.182;11.704;2023-05-10T08:55:21;94174.81;;;16.41;42.67
77366;BME280;66430;50.182;11.704;2023-05-10T08:57:47;94176.48;;;16.59;42.35
77366;BME280;66430;50.182;11.704;2023-05-10T09:00:13;94179.06;;;16.44;42.84
77366;BME280;66430;50.182;11.704;2023-05-10T09:02:38;94186.09;;;16.68;42.47
77366;BME280;66430;50.182;11.704;2023-05-10T09:05:08;94188.40;;;16.73;42.40
77366;BME280;66430;50.182;11.704;2023-05-10T09:07:28;94191.56;;;16.67;42.44
77366;BME280;66430;50.182;11.704;2023-05-10T09:09:54;94192.34;;;16.62;43.32
77366;BME280;66430;50.182;11.704;2023-05-10T09:12:19;94195.60;;;16.57;44.02
77366;BME280;66430;50.182;11.704;2023-05-10T09:14:44;94197.02;;;16.97;44.00
77366;BME280;66430;50.182;11.704;2023-05-10T09:17:10;94198.92;;;16.99;43.25
77366;BME280;66430;50.182;11.704;2023-05-10T09:19:35;94203.64;;;17.18;42.52
77366;BME280;66430;50.182;11.704;2023-05-10T09:22:00;94204.54;;;17.25;42.53
77366;BME280;66430;50.182;11.704;2023-05-10T09:24:26;94203.44;;;16.90;42.19
77366;BME280;66430;50.182;11.704;2023-05-10T09:26:51;94208.71;;;16.98;42.19
77366;BME280;66430;50.182;11.704;2023-05-10T09:29:22;94210.57;;;17.28;41.75
77366;BME280;66430;50.182;11.704;2023-05-10T09:31:47;94210.29;;;16.98;41.43
77366;BME280;66430;50.182;11.704;2023-05-10T09:34:07;94213.15;;;16.64;41.76
77366;BME280;66430;50.182;11.704;2023-05-10T09:36:32;94215.08;;;17.31;41.94
77366;BME280;66430;50.182;11.704;2023-05-10T09:38:58;94216.59;;;16.92;42.37
77366;BME280;66430;50.182;11.704;2023-05-10T09:41:24;94217.54;;;17.10;42.08
77366;BME280;66430;50.182;11.704;2023-05-10T09:43:49;94218.51;;;17.16;42.26
77366;BME280;66430;50.182;11.704;2023-05-10T09:46:15;94219.48;;;16.97;42.16
77366;BME280;66430;50.182;11.704;2023-05-10T09:48:42;94218.56;;;17.08;42.71
77366;BME280;66430;50.182;11.704;2023-05-10T09:51:05;94221.51;;;17.25;43.18
77366;BME280;66430;50.182;11.704;2023-05-10T09:53:30;94223.30;;;17.31;43.20
77366;BME280;66430;50.182;11.704;2023-05-10T09:55:55;94223.88;;;17.48;43.17
77366;BME280;66430;50.182;11.704;2023-05-10T09:58:21;94224.79;;;17.43;42.93
77366;BME280;66430;50.182;11.704;2023-05-10T10:00:47;94229.42;;;17.68;42.34
77366;BME280;66430;50.182;11.704;2023-05-10T10:03:14;94227.38;;;17.69;41.58
77366;BME280;66430;50.182;11.704;2023-05-10T10:05:40;94227.33;;;17.91;41.79
77366;BME280;66430;50.182;11.704;2023-05-10T10:08:04;94228.49;;;17.77;41.99
77366;BME280;66430;50.182;11.704;2023-05-10T10:10:28;94229.65;;;17.65;42.19
77366;BME280;66430;50.182;11.704;2023-05-10T10:12:54;94226.11;;;18.10;41.95
77366;BME280;66430;50.182;11.704;2023-05-10T10:15:19;94228.15;;;17.83;42.06
77366;BME280;66430;50.182;11.704;2023-05-10T10:17:44;94225.09;;;18.49;42.02
77366;BME280;66430;50.182;11.704;2023-05-10T10:20:10;94223.60;;;18.21;41.95
77366;BME280;66430;50.182;11.704;2023-05-10T10:22:35;94223.42;;;18.49;42.05
77366;BME280;66430;50.182;11.704;2023-05-10T10:25:00;94219.80;;;18.57;42.46
77366;BME280;66430;50.182;11.704;2023-05-10T10:27:32;94220.55;;;18.87;41.42
77366;BME280;66430;50.182;11.704;2023-05-10T10:30:00;94219.17;;;18.66;41.91
77366;BME280;66430;50.182;11.704;2023-05-10T10:32:24;94218.06;;;19.16;42.02
77366;BME280;66430;50.182;11.704;2023-05-10T10:34:41;94217.22;;;18.77;42.45
77366;BME280;66430;50.182;11.704;2023-05-10T10:37:07;94216.14;;;18.50;42.01
77366;BME280;66430;50.182;11.704;2023-05-10T10:39:32;94213.97;;;19.37;40.93
77366;BME280;66430;50.182;11.704;2023-05-10T10:41:58;94213.45;;;19.45;42.21
77366;BME280;66430;50.182;11.704;2023-05-10T10:44:36;94206.28;;;19.72;39.88
77366;BME280;66430;50.182;11.704;2023-05-10T10:46:59;94210.52;;;19.82;41.81
77366;BME280;66430;50.182;11.704;2023-05-10T10:49:15;94214.58;;;20.13;41.13
77366;BME280;66430;50.182;11.704;2023-05-10T10:51:39;94212.40;;;19.53;40.69
77366;BME280;66430;50.182;11.704;2023-05-10T10:54:10;94213.01;;;20.28;39.86
77366;BME280;66430;50.182;11.704;2023-05-10T10:56:29;94213.01;;;20.41;40.63
77366;BME280;66430;50.182;11.704;2023-05-10T10:58:59;94209.78;;;20.36;40.08
77366;BME280;66430;50.182;11.704;2023-05-10T11:01:20;94211.57;;;20.12;39.11
77366;BME280;66430;50.182;11.704;2023-05-10T11:06:11;94207.35;;;19.88;38.12
77366;BME280;66430;50.182;11.704;2023-05-10T11:08:46;94207.60;;;19.96;38.59
77366;BME280;66430;50.182;11.704;2023-05-10T11:11:05;94208.70;;;19.78;38.50
77366;BME280;66430;50.182;11.704;2023-05-10T11:13:28;94206.64;;;19.71;38.66
77366;BME280;66430;50.182;11.704;2023-05-10T11:15:53;94204.33;;;19.66;37.16
77366;BME280;66430;50.182;11.704;2023-05-10T11:18:18;94202.91;;;19.68;38.90
77366;BME280;66430;50.182;11.704;2023-05-10T11:20:43;94201.91;;;19.99;39.32
77366;BME280;66430;50.182;11.704;2023-05-10T11:23:13;94201.27;;;19.83;39.88
77366;BME280;66430;50.182;11.704;2023-05-10T11:25:34;94204.86;;;20.20;39.72
77366;BME280;66430;50.182;11.704;2023-05-10T11:28:03;94203.40;;;20.21;35.89
77366;BME280;66430;50.182;11.704;2023-05-10T11:30:24;94206.28;;;19.77;39.73
77366;BME280;66430;50.182;11.704;2023-05-10T11:32:50;94207.83;;;20.26;35.47
77366;BME280;66430;50.182;11.704;2023-05-10T11:35:15;94206.58;;;20.12;35.47
77366;BME280;66430;50.182;11.704;2023-05-10T11:37:47;94206.98;;;19.86;35.67
77366;BME280;66430;50.182;11.704;2023-05-10T11:40:07;94207.69;;;19.89;38.74
77366;BME280;66430;50.182;11.704;2023-05-10T11:42:31;94209.28;;;20.19;37.95
77366;BME280;66430;50.182;11.704;2023-05-10T11:44:56;94208.51;;;20.33;39.77
77366;BME280;66430;50.182;11.704;2023-05-10T11:47:22;94207.39;;;20.60;38.75
77366;BME280;66430;50.182;11.704;2023-05-10T11:49:48;94206.00;;;20.54;37.99
77366;BME280;66430;50.182;11.704;2023-05-10T11:52:12;94208.02;;;20.63;38.52
77366;BME280;66430;50.182;11.704;2023-05-10T11:54:42;94212.09;;;20.80;38.73
77366;BME280;66430;50.182;11.704;2023-05-10T11:57:03;94211.89;;;20.65;37.84
77366;BME280;66430;50.182;11.704;2023-05-10T11:59:28;94217.08;;;20.28;39.36
77366;BME280;66430;50.182;11.704;2023-05-10T12:01:54;94219.42;;;20.44;39.10
77366;BME280;66430;50.182;11.704;2023-05-10T12:04:19;94220.70;;;20.49;39.18
77366;BME280;66430;50.182;11.704;2023-05-10T12:06:44;94220.02;;;20.96;36.64
77366;BME280;66430;50.182;11.704;2023-05-10T12:09:10;94220.39;;;20.61;37.22
77366;BME280;66430;50.182;11.704;2023-05-10T12:11:38;94220.57;;;20.72;37.15
77366;BME280;66430;50.182;11.704;2023-05-10T12:14:04;94223.41;;;20.69;37.02
77366;BME280;66430;50.182;11.704;2023-05-10T12:16:29;94222.98;;;21.09;37.27
77366;BME280;66430;50.182;11.704;2023-05-10T12:18:52;94222.30;;;21.43;34.74
77366;BME280;66430;50.182;11.704;2023-05-10T12:21:17;94220.87;;;20.95;36.24
77366;BME280;66430;50.182;11.704;2023-05-10T12:23:41;94224.45;;;20.62;36.13
77366;BME280;66430;50.182;11.704;2023-05-10T12:26:09;94226.94;;;20.53;36.68
77366;BME280;66430;50.182;11.704;2023-05-10T12:28:32;94225.83;;;20.53;36.03
77366;BME280;66430;50.182;11.704;2023-05-10T12:30:58;94228.00;;;20.23;35.49
77366;BME280;66430;50.182;11.704;2023-05-10T12:33:23;94227.02;;;20.28;35.69
77366;BME280;66430;50.182;11.704;2023-05-10T12:35:50;94230.44;;;20.55;36.38
77366;BME280;66430;50.182;11.704;2023-05-10T12:38:25;94232.14;;;20.22;36.48
77366;BME280;66430;50.182;11.704;2023-05-10T12:40:39;94234.29;;;20.33;36.91
77366;BME280;66430;50.182;11.704;2023-05-10T12:43:04;94235.49;;;20.53;36.90
77366;BME280;66430;50.182;11.704;2023-05-10T12:45:29;94235.90;;;20.64;37.14